sensor_id;sensor_type;location;lat;lon;timestamp;P1;durP1;ratioP1;P2;durP2;ratioP2
10174;SDS011;18221;38.704;0.152;2023-04-01T00:05:19;5.47;;;1.90;;
10174;SDS011;18221;38.704;0.152;2023-04-01T00:07:49;8.63;;;1.83;;
10174;SDS011;18221;38.704;0.152;2023-04-01T00:10:17;5.67;;;1.60;;
10174;SDS011;18221;38.704;0.152;2023-04-01T00:12:46;4.87;;;1.63;;
10174;SDS011;18221;38.704;0.152;2023-04-01T00:15:14;5.77;;;1.87;;
10174;SDS011;18221;38.704;0.152;2023-04-01T00:17:45;4.77;;;1.80;;
10174;SDS011;18221;38.704;0.152;2023-04-01T00:20:14;4.03;;;1.60;;
10174;SDS011;18221;38.704;0.152;2023-04-01T00:22:44;3.43;;;1.70;;
10174;SDS011;18221;38.704;0.152;2023-04-01T00:25:13;5.40;;;1.87;;
10174;SDS011;18221;38.704;0.152;2023-04-01T00:27:41;9.33;;;2.20;;
10174;SDS011;18221;38.704;0.152;2023-04-01T00:30:10;5.37;;;1.53;;
10174;SDS011;18221;38.704;0.152;2023-04-01T00:32:39;6.03;;;2.40;;
10174;SDS011;18221;38.704;0.152;2023-04-01T00:35:08;6.67;;;1.73;;
10174;SDS011;18221;38.704;0.152;2023-04-01T00:37:37;12.47;;;2.40;;
10174;SDS011;18221;38.704;0.152;2023-04-01T00:40:20;9.87;;;2.00;;
10174;SDS011;18221;38.704;0.152;2023-04-01T00:42:53;6.17;;;2.00;;
10174;SDS011;18221;38.704;0.152;2023-04-01T00:45:26;10.53;;;2.00;;
10174;SDS011;18221;38.704;0.152;2023-04-01T00:47:59;8.87;;;2.07;;
10174;SDS011;18221;38.704;0.152;2023-04-01T00:50:35;5.43;;;1.60;;
10174;SDS011;18221;38.704;0.152;2023-04-01T00:53:07;6.30;;;1.87;;
10174;SDS011;18221;38.704;0.152;2023-04-01T00:55:39;9.90;;;1.73;;
10174;SDS011;18221;38.704;0.152;2023-04-01T00:58:15;5.07;;;1.83;;
10174;SDS011;18221;38.704;0.152;2023-04-01T01:00:50;5.03;;;1.83;;
10174;SDS011;18221;38.704;0.152;2023-04-01T01:03:20;10.77;;;2.20;;
10174;SDS011;18221;38.704;0.152;2023-04-01T01:05:53;12.67;;;2.20;;
10174;SDS011;18221;38.704;0.152;2023-04-01T01:08:53;10.93;;;2.40;;
10174;SDS011;18221;38.704;0.152;2023-04-01T01:11:40;10.63;;;2.10;;
10174;SDS011;18221;38.704;0.152;2023-04-01T01:14:27;11.17;;;2.27;;
10174;SDS011;18221;38.704;0.152;2023-04-01T01:17:09;10.50;;;2.33;;
10174;SDS011;18221;38.704;0.152;2023-04-01T01:19:58;9.83;;;2.00;;
10174;SDS011;18221;38.704;0.152;2023-04-01T01:26:29;13.40;;;2.27;;
10174;SDS011;18221;38.704;0.152;2023-04-01T01:29:16;9.37;;;2.17;;
10174;SDS011;18221;38.704;0.152;2023-04-01T01:32:11;8.83;;;2.13;;
10174;SDS011;18221;38.704;0.152;2023-04-01T01:35:07;11.30;;;2.90;;
10174;SDS011;18221;38.704;0.152;2023-04-01T01:37:46;8.97;;;2.13;;
10174;SDS011;18221;38.704;0.152;2023-04-01T01:40:19;12.43;;;2.63;;
10174;SDS011;18221;38.704;0.152;2023-04-01T01:42:52;6.23;;;2.20;;
10174;SDS011;18221;38.704;0.152;2023-04-01T01:45:29;4.60;;;2.13;;
10174;SDS011;18221;38.704;0.152;2023-04-01T01:48:02;9.93;;;2.37;;
10174;SDS011;18221;38.704;0.152;2023-04-01T01:50:37;12.87;;;2.20;;
10174;SDS011;18221;38.704;0.152;2023-04-01T01:53:10;6.07;;;2.53;;
10174;SDS011;18221;38.704;0.152;2023-04-01T01:55:41;5.60;;;2.00;;
10174;SDS011;18221;38.704;0.152;2023-04-01T01:58:13;6.43;;;2.20;;
10174;SDS011;18221;38.704;0.152;2023-04-01T02:00:48;7.00;;;2.00;;
10174;SDS011;18221;38.704;0.152;2023-04-01T02:03:22;10.37;;;2.43;;
10174;SDS011;18221;38.704;0.152;2023-04-01T02:05:56;9.03;;;2.50;;
10174;SDS011;18221;38.704;0.152;2023-04-01T02:08:30;9.27;;;3.00;;
10174;SDS011;18221;38.704;0.152;2023-04-01T02:11:07;10.90;;;3.03;;
10174;SDS011;18221;38.704;0.152;2023-04-01T02:13:40;10.93;;;2.53;;
10174;SDS011;18221;38.704;0.152;2023-04-01T02:16:18;9.23;;;2.37;;
10174;SDS011;18221;38.704;0.152;2023-04-01T02:18:55;13.77;;;2.87;;
10174;SDS011;18221;38.704;0.152;2023-04-01T02:21:29;8.03;;;2.57;;
10174;SDS011;18221;38.704;0.152;2023-04-01T02:24:02;11.87;;;2.80;;
10174;SDS011;18221;38.704;0.152;2023-04-01T02:26:39;13.03;;;2.80;;
10174;SDS011;18221;38.704;0.152;2023-04-01T02:29:09;9.00;;;2.63;;
10174;SDS011;18221;38.704;0.152;2023-04-01T02:31:40;8.67;;;2.67;;
10174;SDS011;18221;38.704;0.152;2023-04-01T02:34:09;11.87;;;2.67;;
10174;SDS011;18221;38.704;0.152;2023-04-01T02:36:40;7.47;;;2.67;;
10174;SDS011;18221;38.704;0.152;2023-04-01T02:39:09;7.63;;;2.50;;
10174;SDS011;18221;38.704;0.152;2023-04-01T02:41:41;8.97;;;2.57;;
10174;SDS011;18221;38.704;0.152;2023-04-01T02:44:12;10.13;;;3.13;;
10174;SDS011;18221;38.704;0.152;2023-04-01T02:46:42;10.67;;;2.90;;
10174;SDS011;18221;38.704;0.152;2023-04-01T02:49:10;10.90;;;2.60;;
10174;SDS011;18221;38.704;0.152;2023-04-01T02:51:40;8.80;;;2.93;;
10174;SDS011;18221;38.704;0.152;2023-04-01T02:54:08;9.77;;;2.70;;
10174;SDS011;18221;38.704;0.152;2023-04-01T02:56:37;8.90;;;2.67;;
10174;SDS011;18221;38.704;0.152;2023-04-01T02:59:05;9.07;;;2.50;;
10174;SDS011;18221;38.704;0.152;2023-04-01T03:01:33;8.40;;;2.60;;
10174;SDS011;18221;38.704;0.152;2023-04-01T03:04:01;8.73;;;2.70;;
10174;SDS011;18221;38.704;0.152;2023-04-01T03:06:33;10.67;;;2.73;;
10174;SDS011;18221;38.704;0.152;2023-04-01T03:09:06;8.03;;;2.70;;
10174;SDS011;18221;38.704;0.152;2023-04-01T03:11:34;8.07;;;3.17;;
10174;SDS011;18221;38.704;0.152;2023-04-01T03:14:02;8.63;;;2.47;;
10174;SDS011;18221;38.704;0.152;2023-04-01T03:16:32;7.67;;;2.90;;
10174;SDS011;18221;38.704;0.152;2023-04-01T03:19:00;10.70;;;2.63;;
10174;SDS011;18221;38.704;0.152;2023-04-01T03:21:29;5.53;;;2.60;;
10174;SDS011;18221;38.704;0.152;2023-04-01T03:23:57;12.20;;;2.43;;
10174;SDS011;18221;38.704;0.152;2023-04-01T03:26:27;7.50;;;2.67;;
10174;SDS011;18221;38.704;0.152;2023-04-01T03:28:56;6.73;;;2.50;;
10174;SDS011;18221;38.704;0.152;2023-04-01T03:31:24;8.40;;;3.03;;
10174;SDS011;18221;38.704;0.152;2023-04-01T03:33:53;10.07;;;2.87;;
10174;SDS011;18221;38.704;0.152;2023-04-01T03:36:22;9.50;;;2.60;;
10174;SDS011;18221;38.704;0.152;2023-04-01T03:38:50;6.87;;;2.87;;
10174;SDS011;18221;38.704;0.152;2023-04-01T03:41:19;7.20;;;2.53;;
10174;SDS011;18221;38.704;0.152;2023-04-01T03:43:49;9.40;;;2.40;;
10174;SDS011;18221;38.704;0.152;2023-04-01T03:46:18;5.97;;;2.33;;
10174;SDS011;18221;38.704;0.152;2023-04-01T03:48:47;9.90;;;2.80;;
10174;SDS011;18221;38.704;0.152;2023-04-01T03:51:15;7.20;;;2.47;;
10174;SDS011;18221;38.704;0.152;2023-04-01T03:53:44;7.70;;;2.80;;
10174;SDS011;18221;38.704;0.152;2023-04-01T03:56:13;6.90;;;2.50;;
10174;SDS011;18221;38.704;0.152;2023-04-01T03:58:41;6.67;;;2.67;;
10174;SDS011;18221;38.704;0.152;2023-04-01T04:01:15;9.50;;;2.73;;
10174;SDS011;18221;38.704;0.152;2023-04-01T04:03:46;9.73;;;2.50;;
10174;SDS011;18221;38.704;0.152;2023-04-01T04:06:16;8.67;;;2.93;;
10174;SDS011;18221;38.704;0.152;2023-04-01T04:08:46;8.50;;;2.57;;
10174;SDS011;18221;38.704;0.152;2023-04-01T04:11:16;8.73;;;2.97;;
10174;SDS011;18221;38.704;0.152;2023-04-01T04:13:46;9.83;;;2.70;;
10174;SDS011;18221;38.704;0.152;2023-04-01T04:16:16;6.73;;;2.67;;
10174;SDS011;18221;38.704;0.152;2023-04-01T04:18:45;10.27;;;2.67;;
10174;SDS011;18221;38.704;0.152;2023-04-01T04:21:14;7.37;;;2.63;;
10174;SDS011;18221;38.704;0.152;2023-04-01T04:23:43;6.50;;;2.80;;
10174;SDS011;18221;38.704;0.152;2023-04-01T04:26:12;8.67;;;2.90;;
10174;SDS011;18221;38.704;0.152;2023-04-01T04:28:42;6.93;;;2.60;;
10174;SDS011;18221;38.704;0.152;2023-04-01T04:31:11;10.37;;;2.90;;
10174;SDS011;18221;38.704;0.152;2023-04-01T04:33:46;8.10;;;2.73;;
10174;SDS011;18221;38.704;0.152;2023-04-01T04:36:14;8.33;;;2.73;;
10174;SDS011;18221;38.704;0.152;2023-04-01T04:38:43;14.83;;;3.17;;
10174;SDS011;18221;38.704;0.152;2023-04-01T04:41:12;8.37;;;2.67;;
10174;SDS011;18221;38.704;0.152;2023-04-01T04:43:47;7.87;;;3.20;;
10174;SDS011;18221;38.704;0.152;2023-04-01T04:46:18;6.97;;;2.80;;
10174;SDS011;18221;38.704;0.152;2023-04-01T04:48:48;5.50;;;2.57;;
10174;SDS011;18221;38.704;0.152;2023-04-01T04:51:17;8.03;;;2.83;;
10174;SDS011;18221;38.704;0.152;2023-04-01T04:53:47;8.63;;;2.90;;
10174;SDS011;18221;38.704;0.152;2023-04-01T04:56:17;7.60;;;2.70;;
10174;SDS011;18221;38.704;0.152;2023-04-01T04:58:49;7.23;;;2.50;;
10174;SDS011;18221;38.704;0.152;2023-04-01T05:01:18;6.97;;;2.70;;
10174;SDS011;18221;38.704;0.152;2023-04-01T05:03:46;9.47;;;2.50;;
10174;SDS011;18221;38.704;0.152;2023-04-01T05:06:17;10.63;;;2.90;;
10174;SDS011;18221;38.704;0.152;2023-04-01T05:08:47;7.57;;;2.90;;
10174;SDS011;18221;38.704;0.152;2023-04-01T05:11:17;8.63;;;3.10;;
10174;SDS011;18221;38.704;0.152;2023-04-01T05:13:46;10.90;;;3.50;;
10174;SDS011;18221;38.704;0.152;2023-04-01T05:16:16;8.53;;;3.03;;
10174;SDS011;18221;38.704;0.152;2023-04-01T05:18:46;9.70;;;2.80;;
10174;SDS011;18221;38.704;0.152;2023-04-01T05:21:16;8.30;;;2.80;;
10174;SDS011;18221;38.704;0.152;2023-04-01T05:23:45;8.87;;;2.90;;
10174;SDS011;18221;38.704;0.152;2023-04-01T05:26:13;9.13;;;3.07;;
10174;SDS011;18221;38.704;0.152;2023-04-01T05:28:42;8.67;;;3.13;;
10174;SDS011;18221;38.704;0.152;2023-04-01T05:31:11;9.60;;;3.30;;
10174;SDS011;18221;38.704;0.152;2023-04-01T05:33:39;9.87;;;3.20;;
10174;SDS011;18221;38.704;0.152;2023-04-01T05:36:11;10.70;;;3.63;;
10174;SDS011;18221;38.704;0.152;2023-04-01T05:38:41;12.70;;;3.73;;
10174;SDS011;18221;38.704;0.152;2023-04-01T05:41:11;9.67;;;4.07;;
10174;SDS011;18221;38.704;0.152;2023-04-01T05:43:40;10.33;;;3.90;;
10174;SDS011;18221;38.704;0.152;2023-04-01T05:46:10;13.57;;;3.80;;
10174;SDS011;18221;38.704;0.152;2023-04-01T05:48:38;8.17;;;3.40;;
10174;SDS011;18221;38.704;0.152;2023-04-01T05:51:13;10.97;;;3.90;;
10174;SDS011;18221;38.704;0.152;2023-04-01T05:53:42;15.47;;;5.73;;
10174;SDS011;18221;38.704;0.152;2023-04-01T05:56:11;17.87;;;6.67;;
10174;SDS011;18221;38.704;0.152;2023-04-01T05:58:50;14.53;;;5.63;;
10174;SDS011;18221;38.704;0.152;2023-04-01T06:01:21;22.37;;;6.13;;
10174;SDS011;18221;38.704;0.152;2023-04-01T06:03:56;14.33;;;5.40;;
10174;SDS011;18221;38.704;0.152;2023-04-01T06:06:27;19.40;;;5.03;;
10174;SDS011;18221;38.704;0.152;2023-04-01T06:09:01;10.63;;;4.10;;
10174;SDS011;18221;38.704;0.152;2023-04-01T06:11:46;14.80;;;5.57;;
10174;SDS011;18221;38.704;0.152;2023-04-01T06:14:47;11.40;;;4.27;;
10174;SDS011;18221;38.704;0.152;2023-04-01T06:17:35;13.07;;;4.40;;
10174;SDS011;18221;38.704;0.152;2023-04-01T06:20:23;13.13;;;3.90;;
10174;SDS011;18221;38.704;0.152;2023-04-01T06:23:11;15.30;;;5.10;;
10174;SDS011;18221;38.704;0.152;2023-04-01T06:26:18;15.80;;;6.47;;
10174;SDS011;18221;38.704;0.152;2023-04-01T06:29:10;17.73;;;6.60;;
10174;SDS011;18221;38.704;0.152;2023-04-01T06:32:13;23.27;;;7.13;;
10174;SDS011;18221;38.704;0.152;2023-04-01T06:38:20;16.63;;;6.33;;
10174;SDS011;18221;38.704;0.152;2023-04-01T06:41:27;17.73;;;6.90;;
10174;SDS011;18221;38.704;0.152;2023-04-01T06:44:23;22.07;;;7.20;;
10174;SDS011;18221;38.704;0.152;2023-04-01T06:47:07;13.83;;;6.40;;
10174;SDS011;18221;38.704;0.152;2023-04-01T06:49:57;16.30;;;7.00;;
10174;SDS011;18221;38.704;0.152;2023-04-01T06:52:42;19.40;;;6.73;;
10174;SDS011;18221;38.704;0.152;2023-04-01T06:55:26;17.27;;;6.27;;
10174;SDS011;18221;38.704;0.152;2023-04-01T06:58:03;13.70;;;5.93;;
10174;SDS011;18221;38.704;0.152;2023-04-01T07:00:40;24.77;;;7.73;;
10174;SDS011;18221;38.704;0.152;2023-04-01T07:03:16;16.33;;;7.27;;
10174;SDS011;18221;38.704;0.152;2023-04-01T07:05:54;16.60;;;6.77;;
10174;SDS011;18221;38.704;0.152;2023-04-01T07:08:29;20.37;;;7.77;;
10174;SDS011;18221;38.704;0.152;2023-04-01T07:11:05;21.07;;;7.37;;
10174;SDS011;18221;38.704;0.152;2023-04-01T07:13:39;20.73;;;6.83;;
10174;SDS011;18221;38.704;0.152;2023-04-01T07:16:18;19.97;;;6.93;;
10174;SDS011;18221;38.704;0.152;2023-04-01T07:18:56;18.37;;;7.10;;
10174;SDS011;18221;38.704;0.152;2023-04-01T07:21:32;21.53;;;7.70;;
10174;SDS011;18221;38.704;0.152;2023-04-01T07:24:09;16.97;;;6.60;;
10174;SDS011;18221;38.704;0.152;2023-04-01T07:26:49;14.87;;;5.90;;
10174;SDS011;18221;38.704;0.152;2023-04-01T07:29:22;19.53;;;6.70;;
10174;SDS011;18221;38.704;0.152;2023-04-01T07:32:12;17.87;;;6.73;;
10174;SDS011;18221;38.704;0.152;2023-04-01T07:35:03;18.73;;;6.57;;
10174;SDS011;18221;38.704;0.152;2023-04-01T07:37:52;19.13;;;6.67;;
10174;SDS011;18221;38.704;0.152;2023-04-01T07:40:39;17.47;;;6.90;;
10174;SDS011;18221;38.704;0.152;2023-04-01T07:43:32;16.73;;;6.77;;
10174;SDS011;18221;38.704;0.152;2023-04-01T07:46:19;13.83;;;5.67;;
10174;SDS011;18221;38.704;0.152;2023-04-01T07:49:16;12.87;;;5.40;;
10174;SDS011;18221;38.704;0.152;2023-04-01T07:51:56;19.30;;;5.60;;
10174;SDS011;18221;38.704;0.152;2023-04-01T07:54:33;14.70;;;4.93;;
10174;SDS011;18221;38.704;0.152;2023-04-01T07:57:12;12.50;;;4.90;;
10174;SDS011;18221;38.704;0.152;2023-04-01T07:59:53;15.43;;;5.97;;
10174;SDS011;18221;38.704;0.152;2023-04-01T08:02:36;14.43;;;5.73;;
10174;SDS011;18221;38.704;0.152;2023-04-01T08:05:24;19.17;;;5.37;;
10174;SDS011;18221;38.704;0.152;2023-04-01T08:07:58;16.50;;;5.20;;
10174;SDS011;18221;38.704;0.152;2023-04-01T08:10:40;15.20;;;4.80;;
10174;SDS011;18221;38.704;0.152;2023-04-01T08:13:19;14.40;;;5.27;;
10174;SDS011;18221;38.704;0.152;2023-04-01T08:16:08;13.77;;;5.00;;
10174;SDS011;18221;38.704;0.152;2023-04-01T08:18:50;15.57;;;5.07;;
10174;SDS011;18221;38.704;0.152;2023-04-01T08:21:35;16.57;;;5.43;;
10174;SDS011;18221;38.704;0.152;2023-04-01T08:24:11;14.00;;;5.00;;
10174;SDS011;18221;38.704;0.152;2023-04-01T08:26:55;13.13;;;4.73;;
10174;SDS011;18221;38.704;0.152;2023-04-01T08:29:32;14.20;;;4.90;;
10174;SDS011;18221;38.704;0.152;2023-04-01T08:32:12;12.90;;;4.97;;
10174;SDS011;18221;38.704;0.152;2023-04-01T08:34:51;12.00;;;4.77;;
10174;SDS011;18221;38.704;0.152;2023-04-01T08:37:30;14.60;;;5.50;;
10174;SDS011;18221;38.704;0.152;2023-04-01T08:40:10;18.13;;;5.57;;
10174;SDS011;18221;38.704;0.152;2023-04-01T08:43:21;14.73;;;5.93;;
10174;SDS011;18221;38.704;0.152;2023-04-01T08:46:29;16.17;;;5.93;;
10174;SDS011;18221;38.704;0.152;2023-04-01T08:49:48;17.40;;;6.13;;
10174;SDS011;18221;38.704;0.152;2023-04-01T08:52:51;12.77;;;5.80;;
10174;SDS011;18221;38.704;0.152;2023-04-01T08:58:37;13.47;;;5.80;;
10174;SDS011;18221;38.704;0.152;2023-04-01T09:01:44;13.57;;;6.07;;
10174;SDS011;18221;38.704;0.152;2023-04-01T09:04:37;21.83;;;6.33;;
10174;SDS011;18221;38.704;0.152;2023-04-01T09:07:37;16.23;;;5.87;;
10174;SDS011;18221;38.704;0.152;2023-04-01T09:16:38;14.00;;;5.63;;
10174;SDS011;18221;38.704;0.152;2023-04-01T09:19:34;14.90;;;6.27;;
10174;SDS011;18221;38.704;0.152;2023-04-01T09:22:31;18.57;;;6.53;;
10174;SDS011;18221;38.704;0.152;2023-04-01T09:25:37;15.63;;;6.17;;
10174;SDS011;18221;38.704;0.152;2023-04-01T09:28:18;22.73;;;6.63;;
10174;SDS011;18221;38.704;0.152;2023-04-01T09:31:00;14.53;;;5.63;;
10174;SDS011;18221;38.704;0.152;2023-04-01T09:33:58;17.17;;;6.03;;
10174;SDS011;18221;38.704;0.152;2023-04-01T09:40:09;15.73;;;6.27;;
10174;SDS011;18221;38.704;0.152;2023-04-01T09:42:58;17.43;;;5.70;;
10174;SDS011;18221;38.704;0.152;2023-04-01T09:45:53;13.93;;;5.53;;
10174;SDS011;18221;38.704;0.152;2023-04-01T09:48:54;17.27;;;6.20;;
10174;SDS011;18221;38.704;0.152;2023-04-01T09:52:10;16.50;;;6.43;;
10174;SDS011;18221;38.704;0.152;2023-04-01T09:54:59;18.20;;;6.20;;
10174;SDS011;18221;38.704;0.152;2023-04-01T10:01:39;16.90;;;7.20;;
10174;SDS011;18221;38.704;0.152;2023-04-01T10:15:21;16.00;;;6.67;;
10174;SDS011;18221;38.704;0.152;2023-04-01T10:18:36;18.27;;;6.33;;
10174;SDS011;18221;38.704;0.152;2023-04-01T10:31:36;17.00;;;5.80;;
10174;SDS011;18221;38.704;0.152;2023-04-01T10:34:53;13.43;;;6.03;;
10174;SDS011;18221;38.704;0.152;2023-04-01T10:41:19;18.20;;;6.37;;
10174;SDS011;18221;38.704;0.152;2023-04-01T10:48:02;15.57;;;6.00;;
10174;SDS011;18221;38.704;0.152;2023-04-01T10:51:04;14.73;;;5.57;;
10174;SDS011;18221;38.704;0.152;2023-04-01T10:54:02;17.00;;;5.50;;
10174;SDS011;18221;38.704;0.152;2023-04-01T10:56:58;16.17;;;6.07;;
10174;SDS011;18221;38.704;0.152;2023-04-01T11:06:30;20.33;;;6.27;;
10174;SDS011;18221;38.704;0.152;2023-04-01T11:13:22;14.07;;;6.10;;
10174;SDS011;18221;38.704;0.152;2023-04-01T11:20:07;16.97;;;5.70;;
10174;SDS011;18221;38.704;0.152;2023-04-01T11:23:27;17.10;;;6.30;;
10174;SDS011;18221;38.704;0.152;2023-04-01T11:26:09;14.73;;;5.73;;
10174;SDS011;18221;38.704;0.152;2023-04-01T11:29:04;15.63;;;5.37;;
10174;SDS011;18221;38.704;0.152;2023-04-01T11:32:01;13.73;;;5.40;;
10174;SDS011;18221;38.704;0.152;2023-04-01T11:34:53;15.93;;;5.57;;
10174;SDS011;18221;38.704;0.152;2023-04-01T11:37:47;18.17;;;5.57;;
10174;SDS011;18221;38.704;0.152;2023-04-01T11:40:28;13.07;;;5.37;;
10174;SDS011;18221;38.704;0.152;2023-04-01T11:43:10;13.07;;;5.60;;
10174;SDS011;18221;38.704;0.152;2023-04-01T11:45:48;15.83;;;6.17;;
10174;SDS011;18221;38.704;0.152;2023-04-01T11:51:42;11.63;;;5.43;;
10174;SDS011;18221;38.704;0.152;2023-04-01T11:57:56;12.50;;;5.33;;
10174;SDS011;18221;38.704;0.152;2023-04-01T12:01:01;14.57;;;5.87;;
10174;SDS011;18221;38.704;0.152;2023-04-01T12:04:09;12.93;;;5.90;;
10174;SDS011;18221;38.704;0.152;2023-04-01T12:07:08;18.67;;;5.80;;
10174;SDS011;18221;38.704;0.152;2023-04-01T12:09:50;14.37;;;5.60;;
10174;SDS011;18221;38.704;0.152;2023-04-01T12:12:32;16.83;;;6.03;;
10174;SDS011;18221;38.704;0.152;2023-04-01T12:15:13;14.33;;;5.47;;
10174;SDS011;18221;38.704;0.152;2023-04-01T12:17:56;14.70;;;5.97;;
10174;SDS011;18221;38.704;0.152;2023-04-01T12:20:44;12.83;;;5.73;;
10174;SDS011;18221;38.704;0.152;2023-04-01T12:26:31;12.33;;;5.80;;
10174;SDS011;18221;38.704;0.152;2023-04-01T12:29:25;15.70;;;5.77;;
10174;SDS011;18221;38.704;0.152;2023-04-01T12:32:23;16.80;;;5.90;;
10174;SDS011;18221;38.704;0.152;2023-04-01T12:35:10;16.30;;;6.40;;
10174;SDS011;18221;38.704;0.152;2023-04-01T12:37:53;14.73;;;5.80;;
10174;SDS011;18221;38.704;0.152;2023-04-01T12:40:48;12.47;;;5.30;;
10174;SDS011;18221;38.704;0.152;2023-04-01T12:44:04;16.73;;;6.30;;
10174;SDS011;18221;38.704;0.152;2023-04-01T12:47:06;20.00;;;6.07;;
10174;SDS011;18221;38.704;0.152;2023-04-01T12:50:15;16.17;;;6.13;;
10174;SDS011;18221;38.704;0.152;2023-04-01T12:53:09;16.03;;;5.97;;
10174;SDS011;18221;38.704;0.152;2023-04-01T12:56:18;11.70;;;5.50;;
10174;SDS011;18221;38.704;0.152;2023-04-01T13:02:11;17.30;;;6.10;;
10174;SDS011;18221;38.704;0.152;2023-04-01T13:04:56;16.30;;;6.13;;
10174;SDS011;18221;38.704;0.152;2023-04-01T13:07:57;14.43;;;5.80;;
10174;SDS011;18221;38.704;0.152;2023-04-01T13:10:50;15.30;;;5.90;;
10174;SDS011;18221;38.704;0.152;2023-04-01T13:13:41;16.77;;;5.73;;
10174;SDS011;18221;38.704;0.152;2023-04-01T13:16:43;15.10;;;6.23;;
10174;SDS011;18221;38.704;0.152;2023-04-01T13:19:24;15.30;;;5.30;;
10174;SDS011;18221;38.704;0.152;2023-04-01T13:22:04;14.83;;;5.57;;
10174;SDS011;18221;38.704;0.152;2023-04-01T13:24:45;14.07;;;5.40;;
10174;SDS011;18221;38.704;0.152;2023-04-01T13:27:27;19.03;;;6.10;;
10174;SDS011;18221;38.704;0.152;2023-04-01T13:30:09;14.60;;;5.50;;
10174;SDS011;18221;38.704;0.152;2023-04-01T13:32:56;14.07;;;4.93;;
10174;SDS011;18221;38.704;0.152;2023-04-01T13:35:35;13.93;;;5.37;;
10174;SDS011;18221;38.704;0.152;2023-04-01T13:38:18;12.40;;;5.50;;
10174;SDS011;18221;38.704;0.152;2023-04-01T13:41:16;15.63;;;5.70;;
10174;SDS011;18221;38.704;0.152;2023-04-01T13:44:00;15.87;;;5.47;;
10174;SDS011;18221;38.704;0.152;2023-04-01T13:47:01;11.90;;;5.10;;
10174;SDS011;18221;38.704;0.152;2023-04-01T13:49:57;12.57;;;4.90;;
10174;SDS011;18221;38.704;0.152;2023-04-01T13:52:50;17.00;;;5.50;;
10174;SDS011;18221;38.704;0.152;2023-04-01T13:55:54;15.00;;;5.20;;
10174;SDS011;18221;38.704;0.152;2023-04-01T14:01:49;16.57;;;5.57;;
10174;SDS011;18221;38.704;0.152;2023-04-01T14:04:42;17.00;;;5.70;;
10174;SDS011;18221;38.704;0.152;2023-04-01T14:07:34;17.77;;;5.50;;
10174;SDS011;18221;38.704;0.152;2023-04-01T14:10:24;14.10;;;5.03;;
10174;SDS011;18221;38.704;0.152;2023-04-01T14:13:07;12.00;;;5.13;;
10174;SDS011;18221;38.704;0.152;2023-04-01T14:15:52;14.83;;;5.10;;
10174;SDS011;18221;38.704;0.152;2023-04-01T14:18:40;16.37;;;5.30;;
10174;SDS011;18221;38.704;0.152;2023-04-01T14:21:35;15.27;;;5.10;;
10174;SDS011;18221;38.704;0.152;2023-04-01T14:24:18;9.57;;;4.83;;
10174;SDS011;18221;38.704;0.152;2023-04-01T14:27:25;16.17;;;5.10;;
10174;SDS011;18221;38.704;0.152;2023-04-01T14:30:28;15.03;;;5.03;;
10174;SDS011;18221;38.704;0.152;2023-04-01T14:33:23;11.80;;;4.70;;
10174;SDS011;18221;38.704;0.152;2023-04-01T14:36:11;10.17;;;4.70;;
10174;SDS011;18221;38.704;0.152;2023-04-01T14:39:15;13.97;;;5.00;;
10174;SDS011;18221;38.704;0.152;2023-04-01T14:45:41;14.73;;;4.97;;
10174;SDS011;18221;38.704;0.152;2023-04-01T14:48:30;13.87;;;4.80;;
10174;SDS011;18221;38.704;0.152;2023-04-01T14:51:04;13.80;;;4.77;;
10174;SDS011;18221;38.704;0.152;2023-04-01T14:53:44;15.87;;;5.00;;
10174;SDS011;18221;38.704;0.152;2023-04-01T14:56:36;11.23;;;4.80;;
10174;SDS011;18221;38.704;0.152;2023-04-01T14:59:09;15.57;;;5.07;;
10174;SDS011;18221;38.704;0.152;2023-04-01T15:01:47;14.53;;;5.50;;
10174;SDS011;18221;38.704;0.152;2023-04-01T15:04:38;11.80;;;4.57;;
10174;SDS011;18221;38.704;0.152;2023-04-01T15:07:34;14.50;;;5.27;;
10174;SDS011;18221;38.704;0.152;2023-04-01T15:10:46;11.23;;;4.53;;
10174;SDS011;18221;38.704;0.152;2023-04-01T15:13:50;16.27;;;4.80;;
10174;SDS011;18221;38.704;0.152;2023-04-01T15:16:40;13.30;;;4.77;;
10174;SDS011;18221;38.704;0.152;2023-04-01T15:19:24;13.33;;;5.53;;
10174;SDS011;18221;38.704;0.152;2023-04-01T15:22:19;16.67;;;4.93;;
10174;SDS011;18221;38.704;0.152;2023-04-01T15:25:24;14.90;;;5.20;;
10174;SDS011;18221;38.704;0.152;2023-04-01T15:28:15;14.13;;;4.97;;
10174;SDS011;18221;38.704;0.152;2023-04-01T15:31:02;11.93;;;4.80;;
10174;SDS011;18221;38.704;0.152;2023-04-01T15:33:40;14.17;;;4.63;;
10174;SDS011;18221;38.704;0.152;2023-04-01T15:36:42;12.70;;;4.93;;
10174;SDS011;18221;38.704;0.152;2023-04-01T15:39:19;11.07;;;4.80;;
10174;SDS011;18221;38.704;0.152;2023-04-01T15:42:11;11.07;;;4.87;;
10174;SDS011;18221;38.704;0.152;2023-04-01T15:45:17;15.07;;;5.07;;
10174;SDS011;18221;38.704;0.152;2023-04-01T15:48:10;16.30;;;5.30;;
10174;SDS011;18221;38.704;0.152;2023-04-01T15:51:01;11.60;;;4.90;;
10174;SDS011;18221;38.704;0.152;2023-04-01T15:56:50;11.83;;;4.93;;
10174;SDS011;18221;38.704;0.152;2023-04-01T15:59:42;10.07;;;4.13;;
10174;SDS011;18221;38.704;0.152;2023-04-01T16:02:31;14.20;;;4.97;;
10174;SDS011;18221;38.704;0.152;2023-04-01T16:05:08;12.80;;;4.40;;
10174;SDS011;18221;38.704;0.152;2023-04-01T16:08:10;15.93;;;5.10;;
10174;SDS011;18221;38.704;0.152;2023-04-01T16:11:03;10.57;;;4.27;;
10174;SDS011;18221;38.704;0.152;2023-04-01T16:13:48;13.27;;;4.30;;
10174;SDS011;18221;38.704;0.152;2023-04-01T16:16:36;13.50;;;4.80;;
10174;SDS011;18221;38.704;0.152;2023-04-01T16:19:35;14.50;;;4.73;;
10174;SDS011;18221;38.704;0.152;2023-04-01T16:22:18;12.63;;;4.73;;
10174;SDS011;18221;38.704;0.152;2023-04-01T16:25:01;11.83;;;4.53;;
10174;SDS011;18221;38.704;0.152;2023-04-01T16:27:52;15.53;;;4.80;;
10174;SDS011;18221;38.704;0.152;2023-04-01T16:30:35;17.53;;;5.77;;
10174;SDS011;18221;38.704;0.152;2023-04-01T16:33:11;14.23;;;5.60;;
10174;SDS011;18221;38.704;0.152;2023-04-01T16:35:52;18.13;;;6.17;;
10174;SDS011;18221;38.704;0.152;2023-04-01T16:38:31;16.43;;;5.60;;
10174;SDS011;18221;38.704;0.152;2023-04-01T16:41:10;11.77;;;5.07;;
10174;SDS011;18221;38.704;0.152;2023-04-01T16:43:46;12.30;;;5.30;;
10174;SDS011;18221;38.704;0.152;2023-04-01T16:46:33;16.20;;;5.47;;
10174;SDS011;18221;38.704;0.152;2023-04-01T16:49:22;13.77;;;5.37;;
10174;SDS011;18221;38.704;0.152;2023-04-01T16:52:04;15.97;;;5.13;;
10174;SDS011;18221;38.704;0.152;2023-04-01T16:54:58;14.90;;;5.33;;
10174;SDS011;18221;38.704;0.152;2023-04-01T16:57:43;12.83;;;5.00;;
10174;SDS011;18221;38.704;0.152;2023-04-01T17:00:27;14.80;;;5.80;;
10174;SDS011;18221;38.704;0.152;2023-04-01T17:03:08;13.00;;;4.60;;
10174;SDS011;18221;38.704;0.152;2023-04-01T17:05:48;15.97;;;5.27;;
10174;SDS011;18221;38.704;0.152;2023-04-01T17:08:59;12.40;;;4.70;;
10174;SDS011;18221;38.704;0.152;2023-04-01T17:11:45;16.37;;;5.03;;
10174;SDS011;18221;38.704;0.152;2023-04-01T17:14:28;13.37;;;4.67;;
10174;SDS011;18221;38.704;0.152;2023-04-01T17:17:15;18.73;;;5.57;;
10174;SDS011;18221;38.704;0.152;2023-04-01T17:20:00;11.87;;;4.87;;
10174;SDS011;18221;38.704;0.152;2023-04-01T17:22:58;12.07;;;4.80;;
10174;SDS011;18221;38.704;0.152;2023-04-01T17:25:45;12.67;;;5.03;;
10174;SDS011;18221;38.704;0.152;2023-04-01T17:28:48;11.73;;;5.50;;
10174;SDS011;18221;38.704;0.152;2023-04-01T17:31:32;13.47;;;5.67;;
10174;SDS011;18221;38.704;0.152;2023-04-01T17:37:20;16.27;;;5.17;;
10174;SDS011;18221;38.704;0.152;2023-04-01T17:43:12;15.93;;;6.00;;
10174;SDS011;18221;38.704;0.152;2023-04-01T17:45:57;16.77;;;5.47;;
10174;SDS011;18221;38.704;0.152;2023-04-01T17:48:51;20.13;;;6.33;;